Southern Pines, NC (28387)

8:02 AM EST on December 05, 2016 (GMT -0500)
Downtown Southern Pines | | Change Station

Elev 535 ft 35.17 °N, 79.40 °W | Updated 7 seconds ago

Overcast
Overcast
43.2 °F
Feels Like 43 °F
N
0.0
Wind Variable Wind from NNW
Gusts 0.0 mph

Today
High -- | Low -- °F
--% Chance of Precip.
Yesterday
High -- | Low -- °F
Precip. -- in
Pressure 30.07 in
Visibility 10.0 miles
Clouds Few 1900 ft
Overcast 12000 ft
Windchill 43 °F
Dew Point 43 °F
Humidity 98%
Rainfall 0.43 in
Snow Depth Not available.
7:11 AM 5:05 PM
Waxing Crescent, 31% visible
METAR KSOP 051256Z AUTO 00000KT 10SM FEW019 OVC120 06/06 A3001 RMK AO2 SLP181 P0002 T00610056
Pressure 30.07 in
Visibility 10.0 miles
Clouds Few 1900 ft
Overcast 12000 ft
Windchill 43 °F
Dew Point 43 °F
Humidity 98%
Rainfall 0.43 in
Snow Depth Not available.
7:11 AM 5:05 PM
Waxing Crescent, 31% visible
METAR KSOP 051256Z AUTO 00000KT 10SM FEW019 OVC120 06/06 A3001 RMK AO2 SLP181 P0002 T00610056

10-Day Weather Forecast

Almanac

Astronomy

Dec. 05, 2016 Rise Set
Actual Time
Civil Twilight
Nautical Twilight
Astronomical Twilight
Moon
Length of Visible Light
Length of Day
Tomorrow will be .
, % of the Moon is Illuminated

Today's Extremes

State Highs State Lows

Community

WunderPhotos

Upload Photos

1,955,780 photos uploaded!

WunderBlog® & News

Nearby

Air Quality

  Air Quality AQ Index Pollutant
Not available.

Snow Depth

Station Depth Elevation

Earthquake Activity

City Distance Mag. Time & Date
Minimum magnitude displayed is 2.5.

Coastal Water Temperatures

Place Temperature

Stations

Nearby Weather Stations

Station Location Temp. Windchill Dew Point Humidity Wind Precip. Elev Updated Type
                   

Watches & Warnings

There are currently no watches in effect.